createdAt,value
2017-11-06T00:02:04.890Z,76.60
2017-11-06T00:07:07.443Z,76.90
2017-11-06T00:12:09.992Z,76.60
2017-11-06T00:17:12.588Z,76.80
2017-11-06T00:22:15.136Z,77.00
2017-11-06T00:27:17.672Z,77.00
2017-11-06T00:32:20.245Z,76.70
2017-11-06T00:37:23.587Z,77.10
2017-11-06T00:42:26.144Z,77.10
2017-11-06T00:47:29.486Z,77.00
2017-11-06T00:52:32.801Z,77.30
2017-11-06T00:57:35.351Z,77.30
2017-11-06T01:02:37.896Z,77.20
2017-11-06T01:07:41.218Z,77.50
2017-11-06T01:12:43.804Z,77.50
2017-11-06T01:17:46.947Z,77.50
2017-11-06T01:22:49.788Z,77.60
2017-11-06T01:27:52.353Z,77.40
2017-11-06T01:32:54.903Z,77.90
2017-11-06T01:37:57.453Z,77.90
2017-11-06T01:42:59.998Z,77.90
2017-11-06T01:48:02.576Z,77.90
2017-11-06T01:53:05.140Z,78.10
2017-11-06T01:58:07.684Z,77.90
2017-11-06T02:03:10.242Z,78.10
2017-11-06T02:08:12.802Z,78.20
2017-11-06T02:13:15.365Z,78.30
2017-11-06T02:18:17.935Z,77.70
2017-11-06T02:23:21.294Z,78.20
2017-11-06T02:28:23.838Z,78.20
2017-11-06T02:33:26.388Z,78.50
2017-11-06T02:38:28.930Z,78.50
2017-11-06T02:43:31.488Z,78.50
2017-11-06T02:48:34.064Z,78.30
2017-11-06T02:53:36.654Z,78.30
2017-11-06T02:58:39.208Z,78.10
2017-11-06T03:03:41.771Z,77.90
2017-11-06T03:08:44.327Z,77.80
2017-11-06T03:13:46.886Z,77.40
2017-11-06T03:18:49.500Z,77.80
2017-11-06T03:23:52.062Z,77.60
2017-11-06T03:28:54.639Z,78.00
2017-11-06T03:33:57.952Z,78.00
2017-11-06T03:39:00.576Z,78.00
2017-11-06T03:44:03.121Z,78.20
2017-11-06T03:49:05.674Z,78.00
2017-11-06T03:54:08.990Z,78.30
2017-11-06T03:59:12.329Z,78.40
2017-11-06T04:04:14.860Z,78.30
2017-11-06T04:09:17.425Z,78.00
2017-11-06T04:14:19.993Z,78.20
2017-11-06T04:19:23.324Z,78.30
2017-11-06T04:24:26.636Z,78.10
2017-11-06T04:29:29.205Z,78.10
2017-11-06T04:34:31.787Z,78.10
2017-11-06T04:39:34.342Z,78.10
2017-11-06T04:44:36.899Z,78.30
2017-11-06T04:49:40.220Z,78.50
2017-11-06T04:54:43.669Z,78.80
2017-11-06T04:59:47.000Z,78.90
2017-11-06T05:04:49.598Z,78.90
2017-11-06T05:09:52.156Z,78.80
2017-11-06T05:14:54.713Z,79.00
2017-11-06T05:19:57.267Z,79.20
2017-11-06T05:24:59.815Z,79.00
2017-11-06T05:30:02.368Z,79.10
2017-11-06T05:35:04.922Z,79.10
2017-11-06T05:40:07.488Z,78.90
2017-11-06T05:45:10.852Z,79.50
2017-11-06T05:50:13.388Z,79.40
2017-11-06T05:55:15.961Z,79.80
2017-11-06T06:00:18.509Z,79.60
2017-11-06T06:05:21.896Z,79.40
2017-11-06T06:10:24.459Z,79.40
2017-11-06T06:15:27.011Z,79.60
2017-11-06T06:20:29.552Z,79.00
2017-11-06T06:25:32.103Z,79.80
2017-11-06T06:30:34.692Z,79.70
2017-11-06T06:35:37.242Z,79.70
2017-11-06T06:40:39.818Z,79.70
2017-11-06T06:45:43.140Z,79.50
2017-11-06T06:50:46.481Z,79.80
2017-11-06T06:55:49.043Z,79.60
2017-11-06T07:00:52.372Z,79.40
2017-11-06T07:05:54.939Z,79.40
2017-11-06T07:10:57.498Z,79.80
2017-11-06T07:16:00.059Z,79.80
2017-11-06T07:21:02.624Z,79.60
2017-11-06T07:26:05.173Z,79.50
2017-11-06T07:31:07.739Z,79.80
2017-11-06T07:36:10.284Z,79.70
2017-11-06T07:41:12.830Z,79.80
2017-11-06T07:46:15.404Z,79.80
2017-11-06T07:51:17.948Z,80.00
2017-11-06T07:56:20.492Z,79.90
2017-11-06T08:01:23.042Z,80.00
2017-11-06T08:06:25.636Z,80.10
2017-11-06T08:11:28.214Z,80.00
2017-11-06T08:16:30.777Z,80.00
2017-11-06T08:21:33.359Z,79.80
2017-11-06T08:26:36.727Z,79.80
2017-11-06T08:31:39.283Z,79.80
2017-11-06T08:36:41.834Z,79.70
2017-11-06T08:41:44.445Z,80.00
2017-11-06T08:46:47.003Z,79.70
2017-11-06T08:51:49.577Z,80.00
2017-11-06T08:56:52.128Z,79.80
2017-11-06T09:01:54.669Z,79.80
2017-11-06T09:06:57.239Z,79.60
2017-11-06T09:12:00.494Z,79.60
2017-11-06T09:17:03.046Z,79.50
2017-11-06T09:22:05.635Z,79.40
2017-11-06T09:27:08.179Z,79.40
2017-11-06T09:32:10.752Z,79.40
2017-11-06T09:37:13.303Z,79.30
2017-11-06T09:42:16.630Z,79.30
2017-11-06T09:47:19.183Z,79.20
2017-11-06T09:52:21.787Z,79.10
2017-11-06T09:57:24.344Z,79.10
2017-11-06T10:02:26.927Z,79.00
2017-11-06T10:07:30.244Z,78.90
2017-11-06T10:12:32.817Z,78.90
2017-11-06T10:17:36.191Z,78.60
2017-11-06T10:22:38.778Z,78.60
2017-11-06T10:27:41.332Z,78.50
2017-11-06T10:32:43.916Z,78.40
2017-11-06T10:37:46.591Z,78.60
2017-11-06T10:42:49.149Z,78.70
2017-11-06T10:47:52.468Z,78.60
2017-11-06T10:52:55.051Z,78.50
2017-11-06T10:57:57.624Z,78.60
2017-11-06T11:03:00.211Z,78.50
2017-11-06T11:08:02.797Z,78.40
2017-11-06T11:13:06.179Z,78.20
2017-11-06T11:18:08.768Z,78.00
2017-11-06T11:23:11.360Z,78.30
2017-11-06T11:28:13.915Z,78.20
2017-11-06T11:33:16.494Z,78.10
2017-11-06T11:38:19.825Z,78.10
2017-11-06T11:43:22.401Z,78.10
2017-11-06T11:48:24.928Z,78.10
2017-11-06T11:53:27.499Z,78.60
2017-11-06T11:58:30.068Z,77.80
2017-11-06T12:03:32.635Z,77.60
2017-11-06T12:08:35.193Z,77.60
2017-11-06T12:13:37.733Z,77.50
2017-11-06T12:18:40.307Z,77.90
2017-11-06T12:23:43.644Z,77.20
2017-11-06T12:28:46.255Z,77.20
2017-11-06T12:33:48.826Z,77.20
2017-11-06T12:38:51.387Z,77.20
2017-11-06T12:43:53.933Z,77.10
2017-11-06T12:48:56.487Z,77.00
2017-11-06T12:53:59.030Z,76.80
2017-11-06T12:59:03.635Z,76.70
2017-11-06T13:04:07.518Z,76.50
2017-11-06T13:24:32.999Z,76.00
2017-11-06T13:29:35.579Z,75.70
2017-11-06T13:34:38.274Z,75.80
2017-11-06T13:39:40.848Z,75.90
2017-11-06T13:44:44.195Z,76.10
2017-11-06T13:49:47.526Z,76.10
2017-11-06T13:54:50.076Z,76.10
2017-11-06T13:59:52.659Z,76.10
2017-11-06T14:04:55.274Z,76.10
2017-11-06T14:09:57.831Z,75.80
2017-11-06T14:15:00.383Z,75.90
2017-11-06T14:20:02.947Z,75.90
2017-11-06T14:25:05.514Z,75.90
2017-11-06T14:30:08.079Z,76.70
2017-11-06T14:35:10.665Z,75.80
2017-11-06T14:40:13.220Z,75.80
2017-11-06T14:45:15.828Z,75.80
2017-11-06T14:50:18.424Z,75.90
2017-11-06T14:55:21.002Z,76.00
2017-11-06T15:00:23.580Z,76.00
2017-11-06T15:05:26.129Z,76.10
2017-11-06T15:10:28.683Z,76.10
2017-11-06T15:15:32.032Z,76.10
2017-11-06T15:20:34.612Z,76.10
2017-11-06T15:25:37.162Z,76.10
2017-11-06T15:30:39.730Z,76.20
2017-11-06T15:35:42.657Z,76.20
2017-11-06T15:40:45.221Z,76.20
2017-11-06T15:45:47.792Z,76.20
2017-11-06T15:50:50.348Z,76.20
2017-11-06T15:55:52.939Z,76.20
2017-11-06T16:00:55.502Z,76.30
2017-11-06T16:05:58.063Z,76.30
2017-11-06T16:11:00.584Z,76.30
2017-11-06T16:16:03.153Z,76.10
2017-11-06T16:21:05.719Z,76.20
2017-11-06T16:26:08.302Z,76.30
2017-11-06T16:31:11.636Z,76.20
2017-11-06T16:36:14.185Z,76.30
2017-11-06T16:41:16.727Z,76.20
2017-11-06T16:46:19.280Z,76.30
2017-11-06T16:51:21.835Z,76.40
2017-11-06T16:56:24.421Z,76.40
2017-11-06T17:01:27.739Z,76.40
2017-11-06T17:06:30.300Z,76.30
2017-11-06T17:11:32.861Z,76.10
2017-11-06T17:16:35.432Z,76.30
2017-11-06T17:21:38.009Z,76.40
2017-11-06T17:26:40.586Z,76.60
2017-11-06T17:31:43.194Z,76.50
2017-11-06T17:36:45.853Z,76.40
2017-11-06T17:41:48.452Z,77.10
2017-11-06T17:46:51.014Z,76.60
2017-11-06T17:51:54.384Z,76.50
2017-11-06T17:56:56.970Z,76.50
2017-11-06T18:01:59.520Z,76.50
2017-11-06T18:07:02.114Z,76.50
2017-11-06T18:12:04.892Z,76.60
2017-11-06T18:17:07.565Z,76.50
2017-11-06T18:22:11.015Z,76.50
2017-11-06T18:27:13.615Z,76.50
2017-11-06T18:32:16.156Z,76.60
2017-11-06T18:37:18.715Z,76.70
2017-11-06T18:42:21.278Z,76.50
2017-11-06T18:47:24.630Z,76.60
2017-11-06T18:52:27.402Z,76.60
2017-11-06T18:57:30.017Z,76.70
2017-11-06T19:02:33.139Z,76.60
2017-11-06T19:07:35.704Z,76.40
2017-11-06T19:12:38.260Z,76.50
2017-11-06T19:17:40.849Z,76.60
2017-11-06T19:22:43.436Z,76.70
2017-11-06T19:27:46.009Z,76.70
2017-11-06T19:32:48.649Z,76.60
2017-11-06T19:37:51.226Z,76.80
2017-11-06T19:42:53.842Z,76.80
2017-11-06T19:47:56.511Z,76.60
2017-11-06T19:52:59.224Z,76.70
2017-11-06T19:58:02.641Z,76.50
2017-11-06T20:03:05.957Z,77.00
2017-11-06T20:08:08.564Z,77.00
2017-11-06T20:13:11.179Z,77.10
2017-11-06T20:18:13.739Z,77.20
2017-11-06T20:23:16.386Z,77.20
2017-11-06T20:28:19.037Z,77.60
2017-11-06T20:33:21.696Z,77.50
2017-11-06T20:38:24.325Z,77.60
2017-11-06T20:43:26.915Z,77.90
2017-11-06T20:48:29.519Z,77.80
2017-11-06T20:53:32.218Z,77.70
2017-11-06T20:58:35.055Z,77.80
2017-11-06T21:03:37.656Z,78.00
2017-11-06T21:08:40.505Z,78.10
2017-11-06T21:13:43.100Z,78.00
2017-11-06T21:18:45.723Z,78.20
2017-11-06T21:23:48.299Z,77.80
2017-11-06T21:28:51.690Z,78.00
2017-11-06T21:33:54.275Z,78.00
2017-11-06T21:38:56.921Z,78.10
2017-11-06T21:43:59.487Z,78.20
2017-11-06T21:49:02.055Z,78.50
2017-11-06T21:54:04.627Z,78.60
2017-11-06T21:59:07.190Z,78.60
2017-11-06T22:04:09.761Z,78.40
2017-11-06T22:09:12.324Z,78.10
2017-11-06T22:14:14.884Z,78.20
2017-11-06T22:19:17.454Z,78.60
2017-11-06T22:24:20.331Z,78.40
2017-11-06T22:29:22.911Z,78.40
2017-11-06T22:34:26.255Z,78.40
2017-11-06T22:39:28.806Z,78.40
2017-11-06T22:44:31.351Z,78.70
2017-11-06T22:49:33.936Z,78.60
2017-11-06T22:54:37.271Z,78.60
2017-11-06T22:59:40.093Z,78.60
2017-11-06T23:04:43.399Z,78.40
2017-11-06T23:09:45.968Z,78.40
2017-11-06T23:14:49.310Z,79.00
2017-11-06T23:19:51.930Z,79.00
2017-11-06T23:24:54.481Z,78.80
2017-11-06T23:29:57.015Z,78.60
2017-11-06T23:34:59.596Z,79.40
2017-11-06T23:40:02.155Z,78.70
2017-11-06T23:45:04.744Z,78.60
2017-11-06T23:50:07.322Z,79.00
2017-11-06T23:55:09.858Z,78.60
